Terminal Aerodrome Forecast
Issued by NWS

Home | Current Version | Previous Version | Graphics & Text | Print | Product List | Glossary On
Versions: 1 2 3 4 5 6 7 8 9 10 11 12 13 14
000
FTUS43 KICT 201720
TAFSLN
TAF
KSLN 201720Z 2018/2118 02013G20KT P6SM FEW250
     FM210000 05011KT P6SM SCT200
     FM211500 06017G23KT P6SM SCT030 BKN100=

USA.gov is the U.S. government's official web portal to all federal, state and local government web resources and services.